createdAt,value
2023-04-06T00:00:59.555Z,15.00
2023-04-06T00:03:26.441Z,19.65
2023-04-06T00:05:53.486Z,11.88
2023-04-06T00:08:22.363Z,17.88
2023-04-06T00:10:48.865Z,16.00
2023-04-06T00:13:15.675Z,13.45
2023-04-06T00:15:42.288Z,15.18
2023-04-06T00:18:08.880Z,13.98
2023-04-06T00:20:35.498Z,15.88
2023-04-06T00:23:02.120Z,13.40
2023-04-06T00:25:28.821Z,12.90
2023-04-06T00:27:55.652Z,15.27
2023-04-06T00:30:22.275Z,11.10
2023-04-06T00:32:48.880Z,16.05
2023-04-06T00:35:16.752Z,14.55
2023-04-06T00:37:43.274Z,15.55
2023-04-06T00:40:10.522Z,15.48
2023-04-06T00:42:37.451Z,12.75
2023-04-06T00:45:04.445Z,17.48
2023-04-06T00:47:31.128Z,18.45
2023-04-06T00:49:57.784Z,13.60
2023-04-06T00:52:24.395Z,10.85
2023-04-06T00:54:51.675Z,19.67
2023-04-06T00:57:18.819Z,12.77
2023-04-06T00:59:46.487Z,16.10
2023-04-06T01:02:13.241Z,12.80
2023-04-06T01:04:39.856Z,14.18
2023-04-06T01:07:06.391Z,14.60
2023-04-06T01:09:33.023Z,13.55
2023-04-06T01:12:00.197Z,12.75
2023-04-06T01:14:26.972Z,14.25
2023-04-06T01:16:53.716Z,12.73
2023-04-06T01:19:22.066Z,11.57
2023-04-06T01:21:50.528Z,16.75
2023-04-06T01:24:17.374Z,13.23
2023-04-06T01:26:44.036Z,15.75
2023-04-06T01:29:10.566Z,13.82
2023-04-06T01:31:37.194Z,13.73
2023-04-06T01:34:03.794Z,15.73
2023-04-06T01:36:30.689Z,16.65
2023-04-06T01:38:57.348Z,11.43
2023-04-06T01:41:23.951Z,15.48
2023-04-06T01:43:50.756Z,12.45
2023-04-06T01:46:17.417Z,12.60
2023-04-06T01:48:44.004Z,13.05
2023-04-06T01:51:10.589Z,13.80
2023-04-06T01:53:37.136Z,12.52
2023-04-06T01:56:03.905Z,11.80
2023-04-06T01:58:30.491Z,15.35
2023-04-06T02:00:57.125Z,17.13
2023-04-06T02:03:23.732Z,13.75
2023-04-06T02:05:50.458Z,13.02
2023-04-06T02:08:17.104Z,13.90
2023-04-06T02:10:43.710Z,12.50
2023-04-06T02:13:10.279Z,13.55
2023-04-06T02:15:36.896Z,18.75
2023-04-06T02:18:03.515Z,15.32
2023-04-06T02:20:30.823Z,16.75
2023-04-06T02:22:59.846Z,14.57
2023-04-06T02:25:26.412Z,17.98
2023-04-06T02:27:52.982Z,13.15
2023-04-06T02:30:19.559Z,15.45
2023-04-06T02:32:46.211Z,18.23
2023-04-06T02:35:12.899Z,14.98
2023-04-06T02:37:39.435Z,15.77
2023-04-06T02:40:07.254Z,14.40
2023-04-06T02:42:34.034Z,18.42
2023-04-06T02:45:00.817Z,15.73
2023-04-06T02:47:27.403Z,21.70
2023-04-06T02:49:54.033Z,17.05
2023-04-06T02:52:20.598Z,19.08
2023-04-06T02:54:47.120Z,15.27
2023-04-06T02:57:13.699Z,18.65
2023-04-06T02:59:40.480Z,19.80
2023-04-06T03:02:07.122Z,15.88
2023-04-06T03:04:33.678Z,17.80
2023-04-06T03:07:01.413Z,18.50
2023-04-06T03:09:28.553Z,15.57
2023-04-06T03:11:55.176Z,21.83
2023-04-06T03:14:23.227Z,18.33
2023-04-06T03:16:50.062Z,18.58
2023-04-06T03:19:16.704Z,21.83
2023-04-06T03:21:43.370Z,17.80
2023-04-06T03:24:09.962Z,16.38
2023-04-06T03:26:36.556Z,25.98
2023-04-06T03:29:03.225Z,19.13
2023-04-06T03:31:29.825Z,16.02
2023-04-06T03:33:56.510Z,20.60
2023-04-06T03:36:23.142Z,20.30
2023-04-06T03:38:49.765Z,19.88
2023-04-06T03:41:16.337Z,19.73
2023-04-06T03:43:42.866Z,18.35
2023-04-06T03:46:09.472Z,16.88
2023-04-06T03:48:36.154Z,19.83
2023-04-06T03:51:02.755Z,19.27
2023-04-06T03:53:29.377Z,19.55
2023-04-06T03:55:56.177Z,20.13
2023-04-06T03:58:22.807Z,21.45
2023-04-06T04:00:49.380Z,18.02
2023-04-06T04:03:16.057Z,17.67
2023-04-06T04:05:43.965Z,19.27
2023-04-06T04:08:10.620Z,15.23
2023-04-06T04:10:37.203Z,18.08
2023-04-06T04:13:03.741Z,18.73
2023-04-06T04:15:30.395Z,15.82
2023-04-06T04:17:57.011Z,14.93
2023-04-06T04:20:23.707Z,13.55
2023-04-06T04:22:50.263Z,16.65
2023-04-06T04:25:16.817Z,18.98
2023-04-06T04:27:43.395Z,15.68
2023-04-06T04:30:10.404Z,21.80
2023-04-06T04:32:37.072Z,17.67
2023-04-06T04:35:04.133Z,16.35
2023-04-06T04:37:30.906Z,17.73
2023-04-06T04:39:57.779Z,17.70
2023-04-06T04:42:24.299Z,16.17
2023-04-06T04:44:50.980Z,16.23
2023-04-06T04:47:17.525Z,29.50
2023-04-06T04:49:44.103Z,17.83
2023-04-06T04:52:10.881Z,15.13
2023-04-06T04:54:37.457Z,10.07
2023-04-06T04:57:04.047Z,16.42
2023-04-06T04:59:30.934Z,16.27
2023-04-06T05:01:57.706Z,13.38
2023-04-06T05:04:25.006Z,18.63
2023-04-06T05:06:51.697Z,23.35
2023-04-06T05:09:18.761Z,17.63
2023-04-06T05:11:45.431Z,18.35
2023-04-06T05:14:12.108Z,19.33
2023-04-06T05:16:38.702Z,17.13
2023-04-06T05:19:05.308Z,25.75
2023-04-06T05:21:32.784Z,18.95
2023-04-06T05:23:59.682Z,24.15
2023-04-06T05:26:26.354Z,20.45
2023-04-06T05:28:52.949Z,16.33
2023-04-06T05:31:19.630Z,19.88
2023-04-06T05:33:46.405Z,23.83
2023-04-06T05:36:15.054Z,18.55
2023-04-06T05:38:41.961Z,18.13
2023-04-06T05:41:08.567Z,24.23
2023-04-06T05:43:35.499Z,18.33
2023-04-06T05:46:02.229Z,14.90
2023-04-06T05:48:28.903Z,15.90
2023-04-06T05:50:55.946Z,20.20
2023-04-06T05:53:22.544Z,26.25
2023-04-06T05:55:49.103Z,19.45
2023-04-06T05:58:15.971Z,16.95
2023-04-06T06:00:43.721Z,23.20
2023-04-06T06:03:11.085Z,23.52
2023-04-06T06:05:37.727Z,17.13
2023-04-06T06:08:04.445Z,19.60
2023-04-06T06:10:31.217Z,23.48
2023-04-06T06:12:57.760Z,28.63
2023-04-06T06:15:24.416Z,23.52
2023-04-06T06:17:50.989Z,25.52
2023-04-06T06:20:17.735Z,24.65
2023-04-06T06:22:44.397Z,26.50
2023-04-06T06:25:10.943Z,31.13
2023-04-06T06:27:37.673Z,31.75
2023-04-06T06:30:04.916Z,35.03
2023-04-06T06:32:31.580Z,27.65
2023-04-06T06:34:58.147Z,34.33
2023-04-06T06:37:24.766Z,30.00
2023-04-06T06:39:51.437Z,30.75
2023-04-06T06:42:18.108Z,29.45
2023-04-06T06:44:44.852Z,24.23
2023-04-06T06:47:11.593Z,23.92
2023-04-06T06:49:38.156Z,28.95
2023-04-06T06:52:04.834Z,32.92
2023-04-06T06:54:31.395Z,25.77
2023-04-06T06:56:57.934Z,24.63
2023-04-06T06:59:24.655Z,31.65
2023-04-06T07:01:51.382Z,21.80
2023-04-06T07:04:18.017Z,20.05
2023-04-06T07:06:44.732Z,29.08
2023-04-06T07:09:11.340Z,30.30
2023-04-06T07:11:37.947Z,35.08
2023-04-06T07:14:04.492Z,23.98
2023-04-06T07:16:31.238Z,23.92
2023-04-06T07:18:58.006Z,27.30
2023-04-06T07:21:24.580Z,27.08
2023-04-06T07:23:51.827Z,33.33
2023-04-06T07:26:18.610Z,34.35
2023-04-06T07:28:46.441Z,33.22
2023-04-06T07:31:13.213Z,35.35
2023-04-06T07:33:39.786Z,37.20
2023-04-06T07:36:06.469Z,49.65
2023-04-06T07:38:33.209Z,31.63
2023-04-06T07:40:59.795Z,44.30
2023-04-06T07:43:26.397Z,46.47
2023-04-06T07:45:53.273Z,39.28
2023-04-06T07:48:19.837Z,36.80
2023-04-06T07:50:46.496Z,46.65
2023-04-06T07:53:13.095Z,34.42
2023-04-06T07:55:39.831Z,38.25
2023-04-06T07:58:06.459Z,33.65
2023-04-06T08:00:33.242Z,33.53
2023-04-06T08:03:00.098Z,50.30
2023-04-06T08:05:27.015Z,32.75
2023-04-06T08:07:53.732Z,30.58
2023-04-06T08:10:20.548Z,31.77
2023-04-06T08:12:47.183Z,35.45
2023-04-06T08:15:13.765Z,30.85
2023-04-06T08:17:40.772Z,30.45
2023-04-06T08:20:07.727Z,29.42
2023-04-06T08:22:34.286Z,32.35
2023-04-06T08:25:00.867Z,30.35
2023-04-06T08:27:27.551Z,26.98
2023-04-06T08:29:54.191Z,33.42
2023-04-06T08:32:20.871Z,28.55
2023-04-06T08:34:47.949Z,39.40
2023-04-06T08:37:14.578Z,27.75
2023-04-06T08:39:41.333Z,27.33
2023-04-06T08:42:17.405Z,25.70
2023-04-06T08:44:45.098Z,31.48
2023-04-06T08:47:11.889Z,24.50
2023-04-06T08:49:39.857Z,30.25
2023-04-06T08:52:08.979Z,25.42
2023-04-06T08:54:35.841Z,33.72
2023-04-06T08:57:03.981Z,24.60
2023-04-06T08:59:31.630Z,23.30
2023-04-06T09:02:00.164Z,23.77
2023-04-06T09:04:27.914Z,26.17
2023-04-06T09:06:54.603Z,21.40
2023-04-06T09:09:24.194Z,24.52
2023-04-06T09:11:53.234Z,20.38
2023-04-06T09:14:39.108Z,27.40
2023-04-06T09:17:06.509Z,20.42
2023-04-06T09:19:33.233Z,20.42
2023-04-06T09:22:04.850Z,21.40
2023-04-06T09:24:48.774Z,29.48
2023-04-06T09:27:16.448Z,27.15
2023-04-06T09:29:43.995Z,21.48
2023-04-06T09:32:12.066Z,27.30
2023-04-06T09:34:41.960Z,29.40
2023-04-06T09:37:15.433Z,24.95
2023-04-06T09:39:42.311Z,23.63
2023-04-06T09:42:09.236Z,27.88
2023-04-06T09:44:35.919Z,29.95
2023-04-06T09:47:07.350Z,28.33
2023-04-06T09:49:34.645Z,27.08
2023-04-06T09:52:03.864Z,26.90
2023-04-06T09:54:32.545Z,25.00
2023-04-06T09:57:22.796Z,19.15
2023-04-06T10:00:10.640Z,21.30
2023-04-06T10:02:49.130Z,25.67
2023-04-06T10:05:22.059Z,29.08
2023-04-06T10:10:23.874Z,15.98
2023-04-06T10:12:50.950Z,10.48
2023-04-06T10:15:19.689Z,20.15
2023-04-06T10:17:47.706Z,9.52
2023-04-06T10:20:22.476Z,12.60
2023-04-06T10:23:03.021Z,11.77
2023-04-06T10:25:34.279Z,10.55
2023-04-06T10:28:08.272Z,9.65
2023-04-06T10:30:36.346Z,8.52
2023-04-06T10:33:14.796Z,9.50
2023-04-06T10:35:41.727Z,9.77
2023-04-06T10:38:08.780Z,10.18
2023-04-06T10:40:39.691Z,10.77
2023-04-06T10:43:14.345Z,11.35
2023-04-06T10:45:42.016Z,9.93
2023-04-06T10:48:19.032Z,10.23
2023-04-06T10:50:50.566Z,11.43
2023-04-06T10:53:27.698Z,11.90
2023-04-06T10:55:57.895Z,12.27
2023-04-06T10:58:28.634Z,9.13
2023-04-06T11:01:00.830Z,9.68
2023-04-06T11:03:28.269Z,15.10
2023-04-06T11:05:54.892Z,12.90
2023-04-06T11:08:33.899Z,8.93
2023-04-06T11:11:10.811Z,6.97
2023-04-06T11:13:48.089Z,7.95
2023-04-06T11:16:15.816Z,7.40
2023-04-06T11:18:49.878Z,7.95
2023-04-06T11:21:16.521Z,10.60
2023-04-06T11:23:43.118Z,7.30
2023-04-06T11:26:13.774Z,8.02
2023-04-06T11:28:45.548Z,7.60
2023-04-06T11:31:12.646Z,8.27
2023-04-06T11:33:40.003Z,10.93
2023-04-06T11:36:07.670Z,9.32
2023-04-06T11:38:34.750Z,8.45
2023-04-06T11:41:02.499Z,10.02
2023-04-06T11:43:32.528Z,5.82
2023-04-06T11:46:03.647Z,7.80
2023-04-06T11:48:31.145Z,6.00
2023-04-06T11:50:59.892Z,7.97
2023-04-06T11:53:27.174Z,7.20
2023-04-06T11:55:53.844Z,4.90
2023-04-06T11:58:20.547Z,10.95
2023-04-06T12:00:47.955Z,6.90
2023-04-06T12:03:15.018Z,7.80
2023-04-06T12:05:41.923Z,5.53
2023-04-06T12:08:08.527Z,6.82
2023-04-06T12:10:35.380Z,4.32
2023-04-06T12:13:01.951Z,5.53
2023-04-06T12:15:28.553Z,7.28
2023-04-06T12:17:55.143Z,4.28
2023-04-06T12:20:26.972Z,4.43
2023-04-06T12:22:54.582Z,6.93
2023-04-06T12:25:21.584Z,6.78
2023-04-06T12:27:48.332Z,5.82
2023-04-06T12:30:15.509Z,4.55
2023-04-06T12:32:42.182Z,4.45
2023-04-06T12:35:10.167Z,5.50
2023-04-06T12:37:37.790Z,5.35
2023-04-06T12:40:05.261Z,5.72
2023-04-06T12:42:31.926Z,4.57
2023-04-06T12:44:58.458Z,5.25
2023-04-06T12:47:27.366Z,5.38
2023-04-06T12:49:55.198Z,8.75
2023-04-06T12:52:21.891Z,6.32
2023-04-06T12:54:50.075Z,7.65
2023-04-06T12:57:18.240Z,5.90
2023-04-06T12:59:45.700Z,5.68
2023-04-06T13:02:12.780Z,5.07
2023-04-06T13:04:39.639Z,5.00
2023-04-06T13:07:06.491Z,6.35
2023-04-06T13:09:33.070Z,6.97
2023-04-06T13:11:59.706Z,6.20
2023-04-06T13:14:26.646Z,5.90
2023-04-06T13:16:53.272Z,7.28
2023-04-06T13:19:19.905Z,6.90
2023-04-06T13:21:46.503Z,6.75
2023-04-06T13:24:14.054Z,7.38
2023-04-06T13:26:41.775Z,6.05
2023-04-06T13:29:08.321Z,6.82
2023-04-06T13:31:34.936Z,7.60
2023-04-06T13:34:01.674Z,6.35
2023-04-06T13:36:28.269Z,5.57
2023-04-06T13:38:56.444Z,6.20
2023-04-06T13:41:24.562Z,8.32
2023-04-06T13:43:51.165Z,6.43
2023-04-06T13:46:18.161Z,5.65
2023-04-06T13:48:45.523Z,8.82
2023-04-06T13:51:13.303Z,5.25
2023-04-06T13:53:41.738Z,6.68
2023-04-06T13:56:09.366Z,5.95
2023-04-06T13:58:37.222Z,6.35
2023-04-06T14:01:07.283Z,6.57
2023-04-06T14:03:34.727Z,8.13
2023-04-06T14:06:05.167Z,7.45
2023-04-06T14:08:42.347Z,6.28
2023-04-06T14:11:13.300Z,5.70
2023-04-06T14:13:40.605Z,6.53
2023-04-06T14:16:08.218Z,7.45
2023-04-06T14:18:35.127Z,7.82
2023-04-06T14:21:02.057Z,7.97
2023-04-06T14:23:29.671Z,9.32
2023-04-06T14:26:06.880Z,9.23
2023-04-06T14:28:34.140Z,9.85
2023-04-06T14:31:01.760Z,7.45
2023-04-06T14:33:28.521Z,8.80
2023-04-06T14:35:55.158Z,7.60
2023-04-06T14:38:21.874Z,6.13
2023-04-06T14:40:48.681Z,8.20
2023-04-06T14:43:16.092Z,7.78
2023-04-06T14:45:42.619Z,7.38
2023-04-06T14:48:12.889Z,7.75
2023-04-06T14:50:42.286Z,8.00
2023-04-06T14:53:08.826Z,8.18
2023-04-06T14:55:41.561Z,17.73
2023-04-06T14:58:08.071Z,14.57
2023-04-06T15:00:34.621Z,12.98
2023-04-06T15:03:01.400Z,10.43
2023-04-06T15:05:28.111Z,10.95
2023-04-06T15:07:54.635Z,9.18
2023-04-06T15:10:21.291Z,12.88
2023-04-06T15:12:47.782Z,7.03
2023-04-06T15:15:14.505Z,9.10
2023-04-06T15:17:41.115Z,10.45
2023-04-06T15:20:08.028Z,9.23
2023-04-06T15:22:34.616Z,6.60
2023-04-06T15:25:01.139Z,5.55
2023-04-06T15:27:27.634Z,10.15
2023-04-06T15:29:54.898Z,8.30
2023-04-06T15:32:21.699Z,8.70
2023-04-06T15:34:48.347Z,8.70
2023-04-06T15:37:14.936Z,16.42
2023-04-06T15:39:41.604Z,61.88
2023-04-06T15:42:08.231Z,9.30
2023-04-06T15:44:34.767Z,8.90
2023-04-06T15:47:01.414Z,8.57
2023-04-06T15:49:27.942Z,8.13
2023-04-06T15:51:54.603Z,9.98
2023-04-06T15:54:21.633Z,10.30
2023-04-06T15:56:49.026Z,13.32
2023-04-06T15:59:16.809Z,10.40
2023-04-06T16:01:43.761Z,13.50
2023-04-06T16:04:11.743Z,11.40
2023-04-06T16:06:38.458Z,8.05
2023-04-06T16:09:05.040Z,9.05
2023-04-06T16:11:32.719Z,9.40
2023-04-06T16:13:59.788Z,9.05
2023-04-06T16:16:27.327Z,8.63
2023-04-06T16:18:54.105Z,9.10
2023-04-06T16:21:20.854Z,6.55
2023-04-06T16:23:48.177Z,5.80
2023-04-06T16:26:16.581Z,8.07
2023-04-06T16:28:43.177Z,6.05
2023-04-06T16:31:23.511Z,7.15
2023-04-06T16:33:51.628Z,8.60
2023-04-06T16:36:29.089Z,9.15
2023-04-06T16:38:56.663Z,8.63
2023-04-06T16:41:23.535Z,7.53
2023-04-06T16:43:50.572Z,6.80
2023-04-06T16:46:17.557Z,9.50
2023-04-06T16:48:44.289Z,7.40
2023-04-06T16:51:11.147Z,8.80
2023-04-06T16:53:38.599Z,6.13
2023-04-06T16:56:06.350Z,8.48
2023-04-06T16:58:36.297Z,9.63
2023-04-06T17:01:02.960Z,12.00
2023-04-06T17:03:30.735Z,7.63
2023-04-06T17:05:57.737Z,8.35
2023-04-06T17:08:24.329Z,12.98
2023-04-06T17:10:59.554Z,11.80
2023-04-06T17:13:30.883Z,11.95
2023-04-06T17:15:57.417Z,11.07
2023-04-06T17:18:24.248Z,14.20
2023-04-06T17:20:50.843Z,11.68
2023-04-06T17:23:17.453Z,17.00
2023-04-06T17:25:44.049Z,17.50
2023-04-06T17:28:10.661Z,15.40
2023-04-06T17:30:37.513Z,11.43
2023-04-06T17:33:04.173Z,17.77
2023-04-06T17:35:30.939Z,14.05
2023-04-06T17:37:57.455Z,15.10
2023-04-06T17:40:24.143Z,11.02
2023-04-06T17:42:50.951Z,14.35
2023-04-06T17:45:17.548Z,14.30
2023-04-06T17:47:44.228Z,14.23
2023-04-06T17:50:11.580Z,12.73
2023-04-06T17:52:38.232Z,18.77
2023-04-06T17:55:05.113Z,17.15
2023-04-06T17:57:31.658Z,13.05
2023-04-06T17:59:58.274Z,33.97
2023-04-06T18:02:25.048Z,24.98
2023-04-06T18:04:55.410Z,21.80
2023-04-06T18:07:22.168Z,22.25
2023-04-06T18:09:48.747Z,21.77
2023-04-06T18:12:15.522Z,12.65
2023-04-06T18:14:42.825Z,17.02
2023-04-06T18:17:09.349Z,21.20
2023-04-06T18:19:35.906Z,43.47
2023-04-06T18:22:02.515Z,17.08
2023-04-06T18:24:41.511Z,18.60
2023-04-06T18:27:09.986Z,12.23
2023-04-06T18:29:37.031Z,17.40
2023-04-06T18:32:04.184Z,16.73
2023-04-06T18:34:30.834Z,14.55
2023-04-06T18:36:57.539Z,12.85
2023-04-06T18:39:24.161Z,13.93
2023-04-06T18:41:50.740Z,14.55
2023-04-06T18:44:17.289Z,14.80
2023-04-06T18:46:44.815Z,15.18
2023-04-06T18:49:12.307Z,12.52
2023-04-06T18:51:41.454Z,13.70
2023-04-06T18:54:08.104Z,11.48
2023-04-06T18:56:34.704Z,14.43
2023-04-06T18:59:01.210Z,13.95
2023-04-06T19:01:29.286Z,13.43
2023-04-06T19:03:57.708Z,13.20
2023-04-06T19:06:27.026Z,14.05
2023-04-06T19:08:53.882Z,13.63
2023-04-06T19:11:23.295Z,13.07
2023-04-06T19:13:50.355Z,17.55
2023-04-06T19:16:18.144Z,17.70
2023-04-06T19:18:45.586Z,10.93
2023-04-06T19:21:20.965Z,12.00
2023-04-06T19:23:49.435Z,11.70
2023-04-06T19:26:17.570Z,14.02
2023-04-06T19:28:44.965Z,11.25
2023-04-06T19:31:14.475Z,14.95
2023-04-06T19:33:41.294Z,10.20
2023-04-06T19:36:08.398Z,11.45
2023-04-06T19:38:36.721Z,13.38
2023-04-06T19:41:04.324Z,13.60
2023-04-06T19:43:30.922Z,12.38
2023-04-06T19:45:57.502Z,11.27
2023-04-06T19:48:24.158Z,13.23
2023-04-06T19:50:54.877Z,13.45
2023-04-06T19:53:22.693Z,11.15
2023-04-06T19:55:49.301Z,10.63
2023-04-06T19:58:15.897Z,12.82
2023-04-06T20:00:42.742Z,19.90
2023-04-06T20:03:09.469Z,11.93
2023-04-06T20:05:36.303Z,17.65
2023-04-06T20:08:02.945Z,14.70
2023-04-06T20:10:29.514Z,19.27
2023-04-06T20:12:56.120Z,39.90
2023-04-06T20:15:23.259Z,11.82
2023-04-06T20:17:49.872Z,14.65
2023-04-06T20:20:16.543Z,14.02
2023-04-06T20:22:43.253Z,11.77
2023-04-06T20:25:11.432Z,13.85
2023-04-06T20:27:38.100Z,12.68
2023-04-06T20:30:05.087Z,12.05
2023-04-06T20:32:31.709Z,9.65
2023-04-06T20:34:59.001Z,14.30
2023-04-06T20:37:25.579Z,12.02
2023-04-06T20:39:52.237Z,11.05
2023-04-06T20:42:19.138Z,13.35
2023-04-06T20:44:46.717Z,14.32
2023-04-06T20:47:13.230Z,12.82
2023-04-06T20:49:39.872Z,12.63
2023-04-06T20:52:06.413Z,11.48
2023-04-06T20:54:32.940Z,14.57
2023-04-06T20:57:02.887Z,14.57
2023-04-06T20:59:29.489Z,16.45
2023-04-06T21:01:56.106Z,11.02
2023-04-06T21:04:23.336Z,12.30
2023-04-06T21:06:50.133Z,11.75
2023-04-06T21:09:17.068Z,10.57
2023-04-06T21:11:43.604Z,10.77
2023-04-06T21:14:10.342Z,10.18
2023-04-06T21:16:37.724Z,15.75
2023-04-06T21:19:04.280Z,15.13
2023-04-06T21:21:30.785Z,11.02
2023-04-06T21:23:58.485Z,11.88
2023-04-06T21:26:25.174Z,12.05
2023-04-06T21:28:51.722Z,11.00
2023-04-06T21:31:20.033Z,11.35
2023-04-06T21:33:47.168Z,9.80
2023-04-06T21:36:13.784Z,11.93
2023-04-06T21:38:40.368Z,13.48
2023-04-06T21:41:07.352Z,10.45
2023-04-06T21:43:34.013Z,12.68
2023-04-06T21:46:00.825Z,11.93
2023-04-06T21:48:27.415Z,13.98
2023-04-06T21:50:53.910Z,15.43
2023-04-06T21:53:20.739Z,11.95
2023-04-06T21:55:47.858Z,13.25
2023-04-06T21:58:15.268Z,15.93
2023-04-06T22:00:42.316Z,13.65
2023-04-06T22:03:09.095Z,14.18
2023-04-06T22:05:40.021Z,12.07
2023-04-06T22:08:06.786Z,9.43
2023-04-06T22:10:33.409Z,9.52
2023-04-06T22:12:59.943Z,9.35
2023-04-06T22:15:26.777Z,9.73
2023-04-06T22:17:53.541Z,7.82
2023-04-06T22:20:20.107Z,8.98
2023-04-06T22:22:46.755Z,12.95
2023-04-06T22:25:13.302Z,12.32
2023-04-06T22:27:39.835Z,7.63
2023-04-06T22:30:07.142Z,13.20
2023-04-06T22:32:33.741Z,10.48
2023-04-06T22:35:00.289Z,10.15
2023-04-06T22:37:26.835Z,8.23
2023-04-06T22:39:53.359Z,9.60
2023-04-06T22:42:19.957Z,9.23
2023-04-06T22:44:46.513Z,12.77
2023-04-06T22:47:13.154Z,12.02
2023-04-06T22:49:39.725Z,11.70
2023-04-06T22:52:06.348Z,8.18
2023-04-06T22:54:33.030Z,9.48
2023-04-06T22:56:59.742Z,10.63
2023-04-06T22:59:26.357Z,11.70
2023-04-06T23:01:52.982Z,7.75
2023-04-06T23:04:19.964Z,8.75
2023-04-06T23:06:46.848Z,9.68
2023-04-06T23:09:13.431Z,10.93
2023-04-06T23:11:39.983Z,9.05
2023-04-06T23:14:06.504Z,9.88
2023-04-06T23:16:33.234Z,6.55
2023-04-06T23:18:59.801Z,9.07
2023-04-06T23:21:26.819Z,8.02
2023-04-06T23:23:53.473Z,9.52
2023-04-06T23:26:20.026Z,8.50
2023-04-06T23:28:46.694Z,8.48
2023-04-06T23:31:13.200Z,9.45
2023-04-06T23:33:39.775Z,11.68
2023-04-06T23:36:06.681Z,10.55
2023-04-06T23:38:33.282Z,10.43
2023-04-06T23:40:59.866Z,7.57
2023-04-06T23:43:26.528Z,9.43
2023-04-06T23:45:53.307Z,9.02
2023-04-06T23:52:07.509Z,10.07
2023-04-06T23:54:34.067Z,9.52
2023-04-06T23:57:01.396Z,7.25
2023-04-06T23:59:27.982Z,10.30
